createdAt,value
2017-08-05T00:00:36.839Z,1008.2
2017-08-05T00:01:37.553Z,1008.3
2017-08-05T00:02:38.305Z,1008.3
2017-08-05T00:03:39.015Z,1008.3
2017-08-05T00:04:39.710Z,1008.3
2017-08-05T00:05:40.414Z,1008.2
2017-08-05T00:06:41.122Z,1008.2
2017-08-05T00:07:42.069Z,1008.2
2017-08-05T00:08:42.760Z,1008.2
2017-08-05T00:09:43.474Z,1008.2
2017-08-05T00:10:44.162Z,1008.2
2017-08-05T00:11:44.867Z,1008.2
2017-08-05T00:12:45.623Z,1008.2
2017-08-05T00:13:46.324Z,1008.2
2017-08-05T00:14:47.028Z,1008.2
2017-08-05T00:15:47.713Z,1008.2
2017-08-05T00:16:48.422Z,1008.2
2017-08-05T00:17:49.187Z,1008.2
2017-08-05T00:18:49.902Z,1008.2
2017-08-05T00:19:50.587Z,1008.2
2017-08-05T00:20:51.304Z,1008.2
2017-08-05T00:21:51.998Z,1008.2
2017-08-05T00:22:52.963Z,1008.2
2017-08-05T00:23:53.666Z,1008.2
2017-08-05T00:24:54.374Z,1008.1
2017-08-05T00:25:55.069Z,1008.1
2017-08-05T00:26:55.731Z,1008.1
2017-08-05T00:27:56.478Z,1008.1
2017-08-05T00:28:57.243Z,1008.0
2017-08-05T00:29:57.937Z,1008.0
2017-08-05T00:30:58.642Z,1008.0
2017-08-05T00:31:59.358Z,1008.0
2017-08-05T00:33:00.114Z,1008.0
2017-08-05T00:34:00.817Z,1008.0
2017-08-05T00:35:01.518Z,1008.0
2017-08-05T00:36:02.218Z,1008.1
2017-08-05T00:37:02.916Z,1008.0
2017-08-05T00:38:03.881Z,1008.0
2017-08-05T00:39:04.583Z,1008.0
2017-08-05T00:40:05.275Z,1008.0
2017-08-05T00:41:05.977Z,1008.0
2017-08-05T00:42:06.691Z,1008.0
2017-08-05T00:43:07.438Z,1008.0
2017-08-05T00:44:08.148Z,1008.0
2017-08-05T00:45:08.860Z,1008.0
2017-08-05T00:46:09.551Z,1008.0
2017-08-05T00:47:10.245Z,1008.0
2017-08-05T00:48:10.885Z,1008.0
2017-08-05T00:49:11.593Z,1008.0
2017-08-05T00:50:12.297Z,1008.1
2017-08-05T00:51:13.010Z,1008.0
2017-08-05T00:52:13.755Z,1008.0
2017-08-05T00:53:14.665Z,1008.0
2017-08-05T00:54:15.393Z,1008.0
2017-08-05T00:55:16.089Z,1008.1
2017-08-05T00:56:16.789Z,1008.0
2017-08-05T00:57:17.500Z,1008.0
2017-08-05T00:58:18.265Z,1008.1
2017-08-05T00:59:18.967Z,1008.0
2017-08-05T01:00:19.670Z,1008.0
2017-08-05T01:01:20.377Z,1008.0
2017-08-05T01:02:21.074Z,1008.0
2017-08-05T01:03:21.788Z,1008.0
2017-08-05T01:04:22.492Z,1008.0
2017-08-05T01:05:23.192Z,1008.0
2017-08-05T01:06:23.894Z,1008.0
2017-08-05T01:07:24.670Z,1008.0
2017-08-05T01:08:25.650Z,1007.9
2017-08-05T01:09:26.352Z,1008.0
2017-08-05T01:10:27.056Z,1008.0
2017-08-05T01:11:27.759Z,1008.0
2017-08-05T01:12:28.457Z,1008.0
2017-08-05T01:13:29.216Z,1008.0
2017-08-05T01:14:29.916Z,1008.1
2017-08-05T01:15:30.619Z,1008.1
2017-08-05T01:16:31.330Z,1008.1
2017-08-05T01:17:32.033Z,1008.0
2017-08-05T01:18:32.790Z,1008.0
2017-08-05T01:19:33.490Z,1008.0
2017-08-05T01:20:34.258Z,1008.0
2017-08-05T01:21:34.960Z,1008.0
2017-08-05T01:22:35.662Z,1008.0
2017-08-05T01:23:36.403Z,1007.9
2017-08-05T01:24:37.109Z,1008.0
2017-08-05T01:25:37.810Z,1008.0
2017-08-05T01:26:38.513Z,1008.0
2017-08-05T01:27:39.217Z,1008.0
2017-08-05T01:28:39.971Z,1008.0
2017-08-05T01:29:40.672Z,1008.0
2017-08-05T01:30:41.376Z,1008.1
2017-08-05T01:31:42.077Z,1008.1
2017-08-05T01:32:42.779Z,1008.1
2017-08-05T01:33:43.536Z,1008.1
2017-08-05T01:34:44.236Z,1008.1
2017-08-05T01:35:44.952Z,1008.0
2017-08-05T01:36:45.738Z,1008.0
2017-08-05T01:37:46.505Z,1008.0
2017-08-05T01:38:47.395Z,1008.0
2017-08-05T01:39:48.092Z,1007.9
2017-08-05T01:40:48.801Z,1007.9
2017-08-05T01:41:49.567Z,1007.9
2017-08-05T01:42:50.273Z,1007.9
2017-08-05T01:43:51.028Z,1007.9
2017-08-05T01:44:51.728Z,1007.8
2017-08-05T01:45:52.432Z,1007.8
2017-08-05T01:46:53.131Z,1007.8
2017-08-05T01:47:53.829Z,1007.8
2017-08-05T01:48:54.474Z,1007.8
2017-08-05T01:49:55.239Z,1007.8
2017-08-05T01:50:55.930Z,1007.8
2017-08-05T01:51:56.626Z,1007.8
2017-08-05T01:52:57.324Z,1007.9
2017-08-05T01:53:58.276Z,1007.8
2017-08-05T01:54:58.921Z,1007.9
2017-08-05T01:55:59.616Z,1007.9
2017-08-05T01:57:00.315Z,1007.9
2017-08-05T01:58:00.984Z,1007.9
2017-08-05T01:59:01.740Z,1008.0
2017-08-05T02:00:02.464Z,1008.0
2017-08-05T02:01:03.240Z,1008.0
2017-08-05T02:02:03.882Z,1008.1
2017-08-05T02:03:04.592Z,1008.1
2017-08-05T02:04:05.336Z,1008.0
2017-08-05T02:05:06.038Z,1008.0
2017-08-05T02:06:06.752Z,1007.9
2017-08-05T02:07:07.473Z,1007.9
2017-08-05T02:08:08.265Z,1007.9
2017-08-05T02:09:09.055Z,1007.9
2017-08-05T02:10:09.694Z,1007.9
2017-08-05T02:11:10.405Z,1007.9
2017-08-05T02:12:11.076Z,1008.0
2017-08-05T02:13:11.795Z,1008.0
2017-08-05T02:14:12.541Z,1008.0
2017-08-05T02:15:13.252Z,1008.1
2017-08-05T02:16:13.955Z,1008.1
2017-08-05T02:17:14.666Z,1008.1
2017-08-05T02:18:15.370Z,1008.0
2017-08-05T02:19:16.116Z,1008.1
2017-08-05T02:20:16.826Z,1008.0
2017-08-05T02:21:17.528Z,1008.0
2017-08-05T02:22:18.231Z,1008.0
2017-08-05T02:23:18.938Z,1008.0
2017-08-05T02:24:19.797Z,1008.0
2017-08-05T02:25:20.498Z,1008.0
2017-08-05T02:26:21.210Z,1008.0
2017-08-05T02:27:21.923Z,1008.0
2017-08-05T02:28:22.621Z,1008.0
2017-08-05T02:29:23.381Z,1008.0
2017-08-05T02:30:24.082Z,1008.0
2017-08-05T02:31:24.722Z,1008.0
2017-08-05T02:32:25.382Z,1008.0
2017-08-05T02:33:26.077Z,1008.1
2017-08-05T02:34:26.839Z,1008.1
2017-08-05T02:35:27.563Z,1008.1
2017-08-05T02:36:28.204Z,1008.1
2017-08-05T02:37:28.904Z,1008.2
2017-08-05T02:38:29.605Z,1008.3
2017-08-05T02:39:30.363Z,1008.2
2017-08-05T02:40:31.083Z,1008.2
2017-08-05T02:41:31.856Z,1008.1
2017-08-05T02:42:32.565Z,1008.1
2017-08-05T02:43:33.276Z,1008.0
2017-08-05T02:44:34.026Z,1008.0
2017-08-05T02:45:34.733Z,1008.0
2017-08-05T02:46:35.437Z,1008.1
2017-08-05T02:47:36.149Z,1008.1
2017-08-05T02:48:36.861Z,1008.1
2017-08-05T02:49:37.618Z,1008.1
2017-08-05T02:50:38.319Z,1008.2
2017-08-05T02:51:39.032Z,1008.1
2017-08-05T02:52:39.735Z,1008.2
2017-08-05T02:53:40.372Z,1008.2
2017-08-05T02:54:41.014Z,1008.1
2017-08-05T02:55:41.723Z,1008.1
2017-08-05T02:56:42.436Z,1008.1
2017-08-05T02:57:43.149Z,1008.2
2017-08-05T02:58:43.787Z,1008.2
2017-08-05T02:59:44.609Z,1008.2
2017-08-05T03:00:45.309Z,1008.1
2017-08-05T03:01:46.011Z,1008.1
2017-08-05T03:02:46.724Z,1008.1
2017-08-05T03:03:47.522Z,1008.1
2017-08-05T03:04:48.289Z,1008.0
2017-08-05T03:05:48.961Z,1008.0
2017-08-05T03:06:49.662Z,1008.0
2017-08-05T03:07:50.406Z,1007.9
2017-08-05T03:08:51.172Z,1008.0
2017-08-05T03:09:52.141Z,1008.0
2017-08-05T03:10:52.782Z,1008.0
2017-08-05T03:11:53.471Z,1008.0
2017-08-05T03:12:54.171Z,1008.0
2017-08-05T03:13:54.811Z,1007.9
2017-08-05T03:14:55.580Z,1008.0
2017-08-05T03:15:56.278Z,1008.0
2017-08-05T03:16:56.984Z,1008.0
2017-08-05T03:17:57.696Z,1008.0
2017-08-05T03:18:58.401Z,1008.0
2017-08-05T03:19:59.173Z,1008.0
2017-08-05T03:20:59.864Z,1008.0
2017-08-05T03:22:00.567Z,1008.0
2017-08-05T03:23:01.237Z,1007.9
2017-08-05T03:24:01.917Z,1007.9
2017-08-05T03:25:02.678Z,1007.9
2017-08-05T03:26:03.468Z,1008.0
2017-08-05T03:27:04.107Z,1007.9
2017-08-05T03:28:04.802Z,1008.0
2017-08-05T03:29:05.513Z,1008.0
2017-08-05T03:30:06.184Z,1008.0
2017-08-05T03:31:06.898Z,1008.0
2017-08-05T03:32:07.593Z,1007.9
2017-08-05T03:33:08.310Z,1007.9
2017-08-05T03:34:09.014Z,1007.9
2017-08-05T03:35:09.780Z,1007.8
2017-08-05T03:36:10.461Z,1007.8
2017-08-05T03:37:11.153Z,1007.8
2017-08-05T03:38:11.792Z,1007.8
2017-08-05T03:39:12.429Z,1007.9
2017-08-05T03:40:13.169Z,1007.9
2017-08-05T03:41:13.809Z,1007.9
2017-08-05T03:42:14.448Z,1007.9
2017-08-05T03:43:15.086Z,1007.9
2017-08-05T03:44:15.724Z,1007.9
2017-08-05T03:45:16.362Z,1008.0
2017-08-05T03:46:17.001Z,1008.0
2017-08-05T03:47:17.640Z,1008.0
2017-08-05T03:48:18.282Z,1008.1
2017-08-05T03:49:18.923Z,1008.0
2017-08-05T03:50:19.563Z,1007.9
2017-08-05T03:51:20.202Z,1007.9
2017-08-05T03:52:20.840Z,1007.9
2017-08-05T03:53:21.478Z,1007.8
2017-08-05T03:54:22.123Z,1007.8
2017-08-05T03:55:22.861Z,1007.7
2017-08-05T03:56:23.501Z,1007.7
2017-08-05T03:57:24.140Z,1007.7
2017-08-05T03:58:24.781Z,1007.7
2017-08-05T03:59:25.420Z,1007.7
2017-08-05T04:00:26.061Z,1007.7
2017-08-05T04:01:26.701Z,1007.7
2017-08-05T04:02:27.341Z,1007.7
2017-08-05T04:03:27.984Z,1007.7
2017-08-05T04:04:28.618Z,1007.6
2017-08-05T04:05:29.257Z,1007.7
2017-08-05T04:06:29.895Z,1007.7
2017-08-05T04:07:30.533Z,1007.7
2017-08-05T04:08:31.174Z,1007.8
2017-08-05T04:09:31.813Z,1007.8
2017-08-05T04:10:32.552Z,1007.8
2017-08-05T04:11:33.191Z,1007.8
2017-08-05T04:12:33.827Z,1007.8
2017-08-05T04:13:34.468Z,1007.8
2017-08-05T04:14:35.107Z,1007.8
2017-08-05T04:15:35.746Z,1007.8
2017-08-05T04:16:36.386Z,1007.7
2017-08-05T04:17:37.024Z,1007.8
2017-08-05T04:18:37.665Z,1007.7
2017-08-05T04:19:38.304Z,1007.7
2017-08-05T04:20:38.943Z,1007.8
2017-08-05T04:21:39.582Z,1007.8
2017-08-05T04:22:40.220Z,1007.8
2017-08-05T04:23:40.857Z,1007.9
2017-08-05T04:24:41.500Z,1008.0
2017-08-05T04:25:42.286Z,1008.0
2017-08-05T04:26:42.925Z,1007.9
2017-08-05T04:27:43.566Z,1007.9
2017-08-05T04:28:44.205Z,1007.9
2017-08-05T04:29:44.846Z,1007.9
2017-08-05T04:30:45.486Z,1007.9
2017-08-05T04:31:46.127Z,1007.9
2017-08-05T04:32:46.766Z,1007.9
2017-08-05T04:33:47.407Z,1007.9
2017-08-05T04:34:48.045Z,1007.9
2017-08-05T04:35:48.683Z,1008.0
2017-08-05T04:36:49.321Z,1008.0
2017-08-05T04:37:49.958Z,1008.0
2017-08-05T04:38:50.599Z,1008.0
2017-08-05T04:39:51.238Z,1008.0
2017-08-05T04:40:52.029Z,1007.9
2017-08-05T04:41:52.668Z,1008.0
2017-08-05T04:42:53.307Z,1008.0
2017-08-05T04:43:53.947Z,1008.0
2017-08-05T04:44:54.587Z,1008.0
2017-08-05T04:45:55.225Z,1008.0
2017-08-05T04:46:55.865Z,1008.0
2017-08-05T04:47:56.503Z,1008.0
2017-08-05T04:48:57.142Z,1008.0
2017-08-05T04:49:57.782Z,1008.0
2017-08-05T04:50:58.422Z,1008.0
2017-08-05T04:51:59.061Z,1008.0
2017-08-05T04:52:59.702Z,1007.9
2017-08-05T04:54:00.343Z,1007.9
2017-08-05T04:55:00.983Z,1007.9
2017-08-05T04:56:01.872Z,1007.9
2017-08-05T04:57:02.511Z,1007.9
2017-08-05T04:58:03.150Z,1007.8
2017-08-05T04:59:03.789Z,1007.9
2017-08-05T05:00:04.429Z,1007.9
2017-08-05T05:01:05.068Z,1007.8
2017-08-05T05:02:05.707Z,1007.7
2017-08-05T05:03:06.346Z,1007.8
2017-08-05T05:04:06.987Z,1007.8
2017-08-05T05:05:07.626Z,1007.8
2017-08-05T05:06:08.264Z,1007.9
2017-08-05T05:07:08.908Z,1007.9
2017-08-05T05:08:09.539Z,1007.8
2017-08-05T05:09:10.181Z,1007.9
2017-08-05T05:10:10.820Z,1007.9
2017-08-05T05:11:11.761Z,1007.8
2017-08-05T05:12:12.430Z,1007.8
2017-08-05T05:13:13.328Z,1007.7
2017-08-05T05:14:13.967Z,1007.7
2017-08-05T05:15:14.605Z,1007.7
2017-08-05T05:16:15.244Z,1007.7
2017-08-05T05:17:15.882Z,1007.7
2017-08-05T05:18:16.521Z,1007.7
2017-08-05T05:19:17.160Z,1007.7
2017-08-05T05:20:17.801Z,1007.8
2017-08-05T05:21:18.441Z,1007.8
2017-08-05T05:22:19.079Z,1007.8
2017-08-05T05:23:19.719Z,1007.8
2017-08-05T05:24:20.359Z,1007.8
2017-08-05T05:25:20.996Z,1007.8
2017-08-05T05:26:21.733Z,1007.8
2017-08-05T05:27:22.372Z,1007.8
2017-08-05T05:28:23.010Z,1007.9
2017-08-05T05:29:23.648Z,1007.8
2017-08-05T05:30:24.287Z,1007.9
2017-08-05T05:31:24.932Z,1007.8
2017-08-05T05:32:25.574Z,1007.8
2017-08-05T05:33:26.212Z,1007.8
2017-08-05T05:34:26.851Z,1007.8
2017-08-05T05:35:27.490Z,1007.8
2017-08-05T05:36:28.128Z,1007.8
2017-08-05T05:37:28.766Z,1007.8
2017-08-05T05:38:29.403Z,1007.8
2017-08-05T05:39:30.042Z,1007.8
2017-08-05T05:40:30.679Z,1007.8
2017-08-05T05:41:31.466Z,1007.8
2017-08-05T05:42:32.104Z,1007.8
2017-08-05T05:43:32.745Z,1007.8
2017-08-05T05:44:33.384Z,1007.8
2017-08-05T05:45:34.025Z,1007.9
2017-08-05T05:46:34.665Z,1007.8
2017-08-05T05:47:35.308Z,1007.9
2017-08-05T05:48:35.943Z,1007.9
2017-08-05T05:49:36.582Z,1007.9
2017-08-05T05:50:37.221Z,1007.9
2017-08-05T05:51:37.859Z,1008.0
2017-08-05T05:52:38.498Z,1007.9
2017-08-05T05:53:39.136Z,1007.9
2017-08-05T05:54:39.778Z,1007.9
2017-08-05T05:55:40.416Z,1008.0
2017-08-05T05:56:41.207Z,1008.1
2017-08-05T05:57:41.846Z,1008.0
2017-08-05T05:58:42.487Z,1008.0
2017-08-05T05:59:43.125Z,1008.0
2017-08-05T06:00:43.763Z,1008.0
2017-08-05T06:01:44.400Z,1008.0
2017-08-05T06:02:45.039Z,1008.0
2017-08-05T06:03:45.678Z,1008.1
2017-08-05T06:04:46.324Z,1008.0
2017-08-05T06:05:46.957Z,1008.0
2017-08-05T06:06:47.598Z,1008.0
2017-08-05T06:07:48.238Z,1008.0
2017-08-05T06:08:48.879Z,1008.0
2017-08-05T06:09:49.519Z,1008.0
2017-08-05T06:10:50.158Z,1007.9
2017-08-05T06:11:50.898Z,1007.8
2017-08-05T06:12:51.536Z,1007.8
2017-08-05T06:13:52.174Z,1007.8
2017-08-05T06:14:52.814Z,1007.8
2017-08-05T06:15:53.455Z,1007.9
2017-08-05T06:16:54.098Z,1007.9
2017-08-05T06:17:54.736Z,1007.9
2017-08-05T06:18:55.379Z,1007.8
2017-08-05T06:19:56.019Z,1007.8
2017-08-05T06:20:56.658Z,1007.8
2017-08-05T06:21:57.298Z,1007.8
2017-08-05T06:22:57.936Z,1007.7
2017-08-05T06:23:58.574Z,1007.7
2017-08-05T06:24:59.212Z,1007.8
2017-08-05T06:25:59.851Z,1007.7
2017-08-05T06:27:00.645Z,1007.7
2017-08-05T06:28:01.275Z,1007.6
2017-08-05T06:29:01.917Z,1007.6
2017-08-05T06:30:02.559Z,1007.6
2017-08-05T06:31:03.195Z,1007.6
2017-08-05T06:32:03.838Z,1007.5
2017-08-05T06:33:04.473Z,1007.5
2017-08-05T06:34:05.110Z,1007.5
2017-08-05T06:35:05.748Z,1007.5
2017-08-05T06:36:06.386Z,1007.5
2017-08-05T06:37:07.025Z,1007.5
2017-08-05T06:38:07.665Z,1007.5
2017-08-05T06:39:08.306Z,1007.5
2017-08-05T06:40:08.945Z,1007.4
2017-08-05T06:41:09.585Z,1007.5
2017-08-05T06:42:10.522Z,1007.5
2017-08-05T06:43:11.159Z,1007.5
2017-08-05T06:44:11.797Z,1007.6
2017-08-05T06:45:12.437Z,1007.6
2017-08-05T06:46:13.074Z,1007.7
2017-08-05T06:47:13.716Z,1007.8
2017-08-05T06:48:14.356Z,1007.9
2017-08-05T06:49:14.996Z,1008.0
2017-08-05T06:50:15.634Z,1008.1
2017-08-05T06:51:16.275Z,1008.1
2017-08-05T06:52:16.960Z,1008.2
2017-08-05T06:53:17.601Z,1008.3
2017-08-05T06:54:18.240Z,1008.3
2017-08-05T06:55:18.879Z,1008.2
2017-08-05T06:56:19.517Z,1008.2
2017-08-05T06:57:20.304Z,1008.2
2017-08-05T06:58:20.943Z,1008.2
2017-08-05T06:59:21.583Z,1008.2
2017-08-05T07:00:22.220Z,1008.2
2017-08-05T07:01:22.860Z,1008.1
2017-08-05T07:02:23.600Z,1008.1
2017-08-05T07:03:24.238Z,1008.1
2017-08-05T07:04:24.877Z,1008.0
2017-08-05T07:05:25.516Z,1007.9
2017-08-05T07:06:26.153Z,1007.8
2017-08-05T07:07:26.793Z,1007.9
2017-08-05T07:08:27.432Z,1007.9
2017-08-05T07:09:28.073Z,1007.9
2017-08-05T07:10:28.709Z,1007.9
2017-08-05T07:11:29.348Z,1007.8
2017-08-05T07:12:29.984Z,1007.8
2017-08-05T07:13:30.621Z,1007.8
2017-08-05T07:14:31.261Z,1007.8
2017-08-05T07:15:31.900Z,1007.8
2017-08-05T07:16:32.540Z,1007.9
2017-08-05T07:17:33.329Z,1007.9
2017-08-05T07:18:33.969Z,1008.0
2017-08-05T07:19:34.609Z,1008.0
2017-08-05T07:20:35.246Z,1008.0
2017-08-05T07:21:35.889Z,1008.0
2017-08-05T07:22:37.274Z,1008.0
2017-08-05T07:23:37.912Z,1008.0
2017-08-05T07:24:38.549Z,1008.0
2017-08-05T07:25:39.190Z,1008.0
2017-08-05T07:26:39.829Z,1008.0
2017-08-05T07:27:40.472Z,1008.0
2017-08-05T07:28:41.114Z,1007.9
2017-08-05T07:29:41.755Z,1007.9
2017-08-05T07:30:42.392Z,1007.9
2017-08-05T07:31:43.033Z,1007.9
2017-08-05T07:32:43.671Z,1007.9
2017-08-05T07:33:44.310Z,1007.8
2017-08-05T07:34:44.949Z,1007.8
2017-08-05T07:35:45.588Z,1007.7
2017-08-05T07:36:46.226Z,1007.8
2017-08-05T07:37:46.961Z,1007.8
2017-08-05T07:38:47.601Z,1007.8
2017-08-05T07:39:48.238Z,1007.8
2017-08-05T07:40:48.876Z,1007.8
2017-08-05T07:41:49.513Z,1007.9
2017-08-05T07:42:50.156Z,1007.9
2017-08-05T07:43:50.792Z,1008.0
2017-08-05T07:44:51.433Z,1008.0
2017-08-05T07:45:52.076Z,1008.0
2017-08-05T07:46:52.711Z,1008.1
2017-08-05T07:47:53.350Z,1008.1
2017-08-05T07:48:53.989Z,1008.1
2017-08-05T07:49:54.628Z,1008.1
2017-08-05T07:50:55.265Z,1008.2
2017-08-05T07:51:55.905Z,1008.2
2017-08-05T07:52:56.694Z,1008.1
2017-08-05T07:53:57.332Z,1008.1
2017-08-05T07:54:57.972Z,1008.1
2017-08-05T07:55:58.612Z,1008.0
2017-08-05T07:56:59.252Z,1008.0
2017-08-05T07:57:59.892Z,1007.9
2017-08-05T07:59:00.533Z,1007.9
2017-08-05T08:00:01.173Z,1007.9
2017-08-05T08:01:01.813Z,1007.8
2017-08-05T08:02:02.452Z,1007.8
2017-08-05T08:03:03.090Z,1007.8
2017-08-05T08:04:03.727Z,1007.9
2017-08-05T08:05:04.367Z,1007.9
2017-08-05T08:06:05.006Z,1007.9
2017-08-05T08:07:05.643Z,1007.9
2017-08-05T08:08:06.533Z,1007.9
2017-08-05T08:09:07.172Z,1007.9
2017-08-05T08:10:07.809Z,1007.9
2017-08-05T08:11:08.449Z,1007.9
2017-08-05T08:12:09.288Z,1007.9
2017-08-05T08:13:09.925Z,1007.9
2017-08-05T08:14:10.573Z,1007.9
2017-08-05T08:15:11.208Z,1007.9
2017-08-05T08:16:11.850Z,1008.0
2017-08-05T08:17:12.489Z,1008.0
2017-08-05T08:18:13.126Z,1007.9
2017-08-05T08:19:13.765Z,1007.9
2017-08-05T08:20:14.416Z,1007.9
2017-08-05T08:21:15.043Z,1007.9
2017-08-05T08:22:15.682Z,1007.8
2017-08-05T08:23:16.470Z,1007.8
2017-08-05T08:24:17.108Z,1007.8
2017-08-05T08:25:17.749Z,1007.8
2017-08-05T08:26:18.384Z,1007.7
2017-08-05T08:27:19.022Z,1007.7
2017-08-05T08:28:19.662Z,1007.7
2017-08-05T08:29:20.300Z,1007.7
2017-08-05T08:30:20.946Z,1007.7
2017-08-05T08:31:21.581Z,1007.7
2017-08-05T08:32:22.218Z,1007.6
2017-08-05T08:33:22.855Z,1007.6
2017-08-05T08:34:23.492Z,1007.7
2017-08-05T08:35:24.133Z,1007.7
2017-08-05T08:36:24.771Z,1007.7
2017-08-05T08:37:25.412Z,1007.7
2017-08-05T08:38:26.152Z,1007.7
2017-08-05T08:39:26.790Z,1007.7
2017-08-05T08:40:27.428Z,1007.7
2017-08-05T08:41:28.068Z,1007.7
2017-08-05T08:42:28.705Z,1007.7
2017-08-05T08:43:29.347Z,1007.8
2017-08-05T08:44:29.986Z,1007.8
2017-08-05T08:45:30.627Z,1007.8
2017-08-05T08:46:31.266Z,1007.8
2017-08-05T08:47:31.905Z,1007.7
2017-08-05T08:48:32.544Z,1007.7
2017-08-05T08:49:33.185Z,1007.7
2017-08-05T08:50:33.823Z,1007.7
2017-08-05T08:51:34.460Z,1007.7
2017-08-05T08:52:35.099Z,1007.7
2017-08-05T08:53:35.888Z,1007.7
2017-08-05T08:54:36.526Z,1007.7
2017-08-05T08:55:37.168Z,1007.7
2017-08-05T08:56:37.809Z,1007.8
2017-08-05T08:57:38.445Z,1007.8
2017-08-05T08:58:39.085Z,1007.8
2017-08-05T08:59:39.724Z,1007.7
2017-08-05T09:00:40.361Z,1007.7
2017-08-05T09:01:40.999Z,1007.6
2017-08-05T09:02:41.638Z,1007.7
2017-08-05T09:03:42.276Z,1007.6
2017-08-05T09:04:42.920Z,1007.6
2017-08-05T09:05:43.554Z,1007.6
2017-08-05T09:06:44.193Z,1007.6
2017-08-05T09:07:44.831Z,1007.6
2017-08-05T09:08:45.573Z,1007.5
2017-08-05T09:09:46.211Z,1007.5
2017-08-05T09:10:46.850Z,1007.5
2017-08-05T09:11:47.487Z,1007.6
2017-08-05T09:12:48.126Z,1007.7
2017-08-05T09:13:48.767Z,1007.8
2017-08-05T09:14:49.408Z,1007.8
2017-08-05T09:15:50.047Z,1007.8
2017-08-05T09:16:50.686Z,1007.8
2017-08-05T09:17:51.326Z,1007.9
2017-08-05T09:18:51.963Z,1007.8
2017-08-05T09:19:52.601Z,1007.8
2017-08-05T09:20:53.239Z,1007.8
2017-08-05T09:21:53.878Z,1007.8
2017-08-05T09:22:54.516Z,1007.8
2017-08-05T09:23:55.255Z,1007.8
2017-08-05T09:24:55.894Z,1007.8
2017-08-05T09:25:56.531Z,1007.8
2017-08-05T09:26:57.522Z,1007.7
2017-08-05T09:27:58.160Z,1007.7
2017-08-05T09:28:58.799Z,1007.7
2017-08-05T09:29:59.438Z,1007.8
2017-08-05T09:31:00.074Z,1007.8
2017-08-05T09:32:00.713Z,1007.9
2017-08-05T09:33:01.353Z,1007.9
2017-08-05T09:34:01.993Z,1007.8
2017-08-05T09:35:02.632Z,1007.8
2017-08-05T09:36:03.271Z,1007.9
2017-08-05T09:37:03.909Z,1007.8
2017-08-05T09:38:04.547Z,1007.8
2017-08-05T09:39:05.187Z,1007.8
2017-08-05T09:40:05.823Z,1007.7
2017-08-05T09:41:06.462Z,1007.6
2017-08-05T09:42:07.302Z,1007.6
2017-08-05T09:43:07.940Z,1007.7
2017-08-05T09:44:08.580Z,1007.8
2017-08-05T09:45:09.218Z,1007.8
2017-08-05T09:46:09.858Z,1007.9
2017-08-05T09:47:10.496Z,1007.9
2017-08-05T09:48:11.135Z,1007.9
2017-08-05T09:49:11.779Z,1008.0
2017-08-05T09:50:12.411Z,1008.0
2017-08-05T09:51:13.050Z,1008.1
2017-08-05T09:52:13.796Z,1008.2
2017-08-05T09:53:14.435Z,1008.1
2017-08-05T09:54:15.074Z,1008.1
2017-08-05T09:55:15.718Z,1008.1
2017-08-05T09:56:16.358Z,1008.1
2017-08-05T09:57:17.143Z,1008.1
2017-08-05T09:58:17.783Z,1008.1
2017-08-05T09:59:18.422Z,1008.1
2017-08-05T10:00:19.059Z,1008.1
2017-08-05T10:01:19.694Z,1008.1
2017-08-05T10:02:20.339Z,1008.1
2017-08-05T10:03:20.980Z,1008.1
2017-08-05T10:04:21.619Z,1008.1
2017-08-05T10:05:22.256Z,1008.1
2017-08-05T10:06:22.896Z,1008.1
2017-08-05T10:07:23.533Z,1008.1
2017-08-05T10:08:24.174Z,1008.1
2017-08-05T10:09:24.813Z,1008.1
2017-08-05T10:10:25.453Z,1008.1
2017-08-05T10:11:26.091Z,1008.1
2017-08-05T10:12:26.929Z,1008.1
2017-08-05T10:13:27.569Z,1008.1
2017-08-05T10:14:28.408Z,1008.1
2017-08-05T10:15:29.047Z,1008.1
2017-08-05T10:16:29.687Z,1008.1
2017-08-05T10:17:30.329Z,1008.1
2017-08-05T10:18:31.065Z,1008.1
2017-08-05T10:19:31.703Z,1008.1
2017-08-05T10:20:32.343Z,1008.1
2017-08-05T10:21:32.981Z,1008.1
2017-08-05T10:22:33.622Z,1008.1
2017-08-05T10:23:34.265Z,1008.1
2017-08-05T10:24:34.902Z,1008.0
2017-08-05T10:25:35.541Z,1008.1
2017-08-05T10:26:36.181Z,1008.1
2017-08-05T10:27:36.819Z,1008.1
2017-08-05T10:28:37.458Z,1008.2
2017-08-05T10:29:38.097Z,1008.2
2017-08-05T10:30:38.733Z,1008.2
2017-08-05T10:31:39.373Z,1008.2
2017-08-05T10:32:40.212Z,1008.2
2017-08-05T10:33:40.947Z,1008.2
2017-08-05T10:34:41.586Z,1008.2
2017-08-05T10:35:13.244Z,1008.2
2017-08-05T10:36:13.880Z,1008.2
2017-08-05T10:37:14.518Z,1008.2
2017-08-05T10:38:15.157Z,1008.2
2017-08-05T10:39:15.798Z,1008.1
2017-08-05T10:40:16.435Z,1008.1
2017-08-05T10:41:17.072Z,1008.0
2017-08-05T10:42:17.710Z,1007.9
2017-08-05T10:43:18.348Z,1008.0
2017-08-05T10:44:18.986Z,1008.0
2017-08-05T10:45:19.629Z,1007.9
2017-08-05T10:46:20.272Z,1007.9
2017-08-05T10:47:20.911Z,1007.9
2017-08-05T10:48:21.549Z,1007.9
2017-08-05T10:49:22.692Z,1007.9
2017-08-05T10:50:23.328Z,1007.9
2017-08-05T10:51:23.966Z,1007.9
2017-08-05T10:52:24.606Z,1008.0
2017-08-05T10:53:25.245Z,1008.0
2017-08-05T10:54:25.885Z,1008.1
2017-08-05T10:55:26.521Z,1008.0
2017-08-05T10:56:27.162Z,1008.0
2017-08-05T10:57:27.803Z,1008.0
2017-08-05T10:58:28.441Z,1008.0
2017-08-05T10:59:29.078Z,1008.0
2017-08-05T11:00:29.715Z,1008.0
2017-08-05T11:01:30.354Z,1008.0
2017-08-05T11:02:30.993Z,1008.0
2017-08-05T11:03:31.632Z,1008.0
2017-08-05T11:04:32.374Z,1008.0
2017-08-05T11:05:33.009Z,1008.0
2017-08-05T11:06:33.647Z,1008.1
2017-08-05T11:07:34.287Z,1008.1
2017-08-05T11:08:34.925Z,1008.1
2017-08-05T11:09:35.564Z,1008.1
2017-08-05T11:10:36.202Z,1008.2
2017-08-05T11:11:36.843Z,1008.2
2017-08-05T11:12:37.483Z,1008.3
2017-08-05T11:13:38.123Z,1008.2
2017-08-05T11:14:38.867Z,1008.3
2017-08-05T11:15:39.501Z,1008.2
2017-08-05T11:16:40.137Z,1008.3
2017-08-05T11:17:40.779Z,1008.3
2017-08-05T11:18:41.416Z,1008.2
2017-08-05T11:19:42.057Z,1008.3
2017-08-05T11:20:42.696Z,1008.2
2017-08-05T11:21:43.335Z,1008.3
2017-08-05T11:22:43.975Z,1008.3
2017-08-05T11:23:44.613Z,1008.3
2017-08-05T11:24:45.251Z,1008.3
2017-08-05T11:25:45.889Z,1008.3
2017-08-05T11:26:46.528Z,1008.3
2017-08-05T11:27:47.166Z,1008.3
2017-08-05T11:28:47.808Z,1008.3
2017-08-05T11:29:48.600Z,1008.3
2017-08-05T11:30:49.244Z,1008.3
2017-08-05T11:31:49.878Z,1008.3
2017-08-05T11:32:50.518Z,1008.3
2017-08-05T11:33:51.158Z,1008.2
2017-08-05T11:34:51.798Z,1008.1
2017-08-05T11:35:52.437Z,1008.1
2017-08-05T11:36:53.077Z,1008.0
2017-08-05T11:37:53.715Z,1008.0
2017-08-05T11:38:54.353Z,1008.0
2017-08-05T11:39:54.991Z,1008.1
2017-08-05T11:40:55.630Z,1008.1
2017-08-05T11:41:56.267Z,1008.1
2017-08-05T11:42:56.907Z,1008.1
2017-08-05T11:43:57.546Z,1008.2
2017-08-05T11:44:58.435Z,1008.2
2017-08-05T11:45:59.074Z,1008.2
2017-08-05T11:46:59.712Z,1008.3
2017-08-05T11:48:00.351Z,1008.3
2017-08-05T11:49:00.990Z,1008.2
2017-08-05T11:50:01.632Z,1008.2
2017-08-05T11:51:02.268Z,1008.2
2017-08-05T11:52:02.910Z,1008.2
2017-08-05T11:53:03.550Z,1008.2
2017-08-05T11:54:04.189Z,1008.2
2017-08-05T11:55:04.829Z,1008.2
2017-08-05T11:56:05.470Z,1008.3
2017-08-05T11:57:06.109Z,1008.2
2017-08-05T11:58:06.750Z,1008.2
2017-08-05T11:59:07.385Z,1008.2
2017-08-05T12:00:08.023Z,1008.2
2017-08-05T12:01:08.663Z,1008.2
2017-08-05T12:02:09.300Z,1008.2
2017-08-05T12:03:09.941Z,1008.2
2017-08-05T12:04:10.578Z,1008.2
2017-08-05T12:05:11.221Z,1008.2
2017-08-05T12:06:11.864Z,1008.2
2017-08-05T12:07:12.505Z,1008.2
2017-08-05T12:08:13.144Z,1008.2
2017-08-05T12:09:13.784Z,1008.2
2017-08-05T12:10:14.424Z,1008.2
2017-08-05T12:11:15.062Z,1008.2
2017-08-05T12:12:15.702Z,1008.2
2017-08-05T12:13:16.340Z,1008.2
2017-08-05T12:14:16.976Z,1008.2
2017-08-05T12:15:17.715Z,1008.2
2017-08-05T12:16:18.354Z,1008.2
2017-08-05T12:17:18.994Z,1008.2
2017-08-05T12:18:19.934Z,1008.2
2017-08-05T12:19:20.572Z,1008.2
2017-08-05T12:20:21.209Z,1008.3
2017-08-05T12:21:21.846Z,1008.3
2017-08-05T12:22:22.487Z,1008.3
2017-08-05T12:23:23.125Z,1008.3
2017-08-05T12:24:23.766Z,1008.2
2017-08-05T12:25:24.405Z,1008.3
2017-08-05T12:26:25.042Z,1008.2
2017-08-05T12:27:25.681Z,1008.2
2017-08-05T12:28:26.322Z,1008.3
2017-08-05T12:29:26.959Z,1008.2
2017-08-05T12:30:27.597Z,1008.2
2017-08-05T12:31:28.240Z,1008.2
2017-08-05T12:32:28.874Z,1008.3
2017-08-05T12:33:29.816Z,1008.2
2017-08-05T12:34:30.454Z,1008.2
2017-08-05T12:35:31.243Z,1008.2
2017-08-05T12:36:31.882Z,1008.3